Time;durP1;ratioP1;P1;durP2;ratioP2;P2;SDS_P1;SDS_P2;PMS_P1;PMS_P2;Temp;Humidity;BMP_temperature;BMP_pressure;BME280_temperature;BME280_humidity;BME280_pressure;Samples;Min_cycle;Max_cycle;Signal;HPM_P1;HPM_P2
2022/07/02 00:01:02;;;;;;;6.37;4.80;;;;;;;;;;5094340;28;20880;-68
2022/07/02 00:03:32;;;;;;;6.03;5.07;;;;;;;;;;5093976;28;20476;-66
2022/07/02 00:06:00;;;;;;;10.40;5.73;;;;;;;;;;5094705;28;20485;-67
2022/07/02 00:08:28;;;;;;;7.93;5.77;;;;;;;;;;5093952;28;20516;-67
2022/07/02 00:10:56;;;;;;;5.20;4.70;;;;;;;;;;5094569;28;20528;-66
2022/07/02 00:13:24;;;;;;;5.77;4.27;;;;;;;;;;5093690;28;20448;-66
2022/07/02 00:15:52;;;;;;;5.93;5.30;;;;;;;;;;5094640;28;20442;-66
2022/07/02 00:18:20;;;;;;;7.33;5.10;;;;;;;;;;5093952;28;20503;-66
2022/07/02 00:20:48;;;;;;;9.87;5.13;;;;;;;;;;5093800;28;20925;-68
2022/07/02 00:23:15;;;;;;;5.10;4.40;;;;;;;;;;5094179;28;20446;-66
2022/07/02 00:25:43;;;;;;;5.17;4.77;;;;;;;;;;5093652;28;20489;-66
2022/07/02 00:28:12;;;;;;;6.77;5.30;;;;;;;;;;5093884;28;20432;-66
2022/07/02 00:30:40;;;;;;;15.60;4.47;;;;;;;;;;5093633;28;20535;-67
2022/07/02 00:33:11;;;;;;;8.43;4.60;;;;;;;;;;5093851;28;20471;-66
2022/07/02 00:35:38;;;;;;;5.60;5.10;;;;;;;;;;5093555;28;20529;-66
2022/07/02 00:38:06;;;;;;;6.43;5.83;;;;;;;;;;5093509;28;20448;-66
2022/07/02 00:40:34;;;;;;;6.53;5.30;;;;;;;;;;5093848;28;20444;-66
2022/07/02 00:43:02;;;;;;;5.77;5.37;;;;;;;;;;5093744;28;20825;-66
2022/07/02 00:45:29;;;;;;;6.67;5.13;;;;;;;;;;5093775;28;20441;-67
2022/07/02 00:47:57;;;;;;;9.73;4.90;;;;;;;;;;5093041;28;20597;-67
2022/07/02 00:50:26;;;;;;;14.00;5.93;;;;;;;;;;5093405;28;20450;-67
2022/07/02 00:52:53;;;;;;;5.90;5.30;;;;;;;;;;5093595;28;20540;-67
2022/07/02 00:55:21;;;;;;;9.67;5.97;;;;;;;;;;5093242;28;20566;-66
2022/07/02 00:57:48;;;;;;;5.87;5.33;;;;;;;;;;5093281;28;20475;-66
2022/07/02 01:00:16;;;;;;;6.60;5.70;;;;;;;;;;5093491;28;20536;-66
2022/07/02 01:02:45;;;;;;;5.60;5.13;;;;;;;;;;5093584;28;20482;-66
2022/07/02 01:05:13;;;;;;;8.70;5.63;;;;;;;;;;5095490;28;20474;-66
2022/07/02 01:07:41;;;;;;;6.83;5.67;;;;;;;;;;5097465;28;20530;-66
2022/07/02 01:10:18;;;;;;;5.80;5.23;;;;;;;;;;5097634;28;20527;-66
2022/07/02 01:12:46;;;;;;;5.40;4.90;;;;;;;;;;5097698;28;20825;-66
2022/07/02 01:15:14;;;;;;;7.50;5.00;;;;;;;;;;5097086;28;20507;-66
2022/07/02 01:17:41;;;;;;;6.13;5.37;;;;;;;;;;5097341;28;20451;-65
2022/07/02 01:20:09;;;;;;;8.87;5.60;;;;;;;;;;5097147;28;20530;-66
2022/07/02 01:22:38;;;;;;;5.77;5.27;;;;;;;;;;5097479;28;20437;-65
2022/07/02 01:25:06;;;;;;;5.60;5.10;;;;;;;;;;5096990;28;21017;-66
2022/07/02 01:27:34;;;;;;;5.87;5.30;;;;;;;;;;5097354;28;20528;-66
2022/07/02 01:30:01;;;;;;;8.23;5.57;;;;;;;;;;5097034;28;20528;-66
2022/07/02 01:32:29;;;;;;;6.10;5.23;;;;;;;;;;5096965;28;20534;-66
2022/07/02 01:35:06;;;;;;;12.73;6.00;;;;;;;;;;5097051;28;20510;-66
2022/07/02 01:37:33;;;;;;;7.83;7.13;;;;;;;;;;5097273;28;20783;-67
2022/07/02 01:40:02;;;;;;;6.90;5.63;;;;;;;;;;5097044;28;20531;-66
2022/07/02 01:42:29;;;;;;;6.63;5.40;;;;;;;;;;5097141;28;20482;-66
2022/07/02 01:44:56;;;;;;;9.00;5.73;;;;;;;;;;5096552;28;20968;-67
2022/07/02 01:47:23;;;;;;;6.30;5.70;;;;;;;;;;5096637;28;20528;-67
2022/07/02 01:49:51;;;;;;;8.43;5.30;;;;;;;;;;5097106;28;20507;-67
2022/07/02 01:52:18;;;;;;;7.30;5.73;;;;;;;;;;5096589;28;20527;-67
2022/07/02 01:54:46;;;;;;;9.37;6.13;;;;;;;;;;5096341;28;20546;-66
2022/07/02 01:57:15;;;;;;;8.17;4.83;;;;;;;;;;5096511;28;20436;-66
2022/07/02 01:59:42;;;;;;;6.10;5.60;;;;;;;;;;5096382;28;20436;-66
2022/07/02 02:02:10;;;;;;;7.83;5.67;;;;;;;;;;5096414;28;20491;-67
2022/07/02 02:04:37;;;;;;;6.13;5.63;;;;;;;;;;5096327;28;20500;-67
2022/07/02 02:07:05;;;;;;;9.07;5.60;;;;;;;;;;5096676;28;20443;-67
2022/07/02 02:09:32;;;;;;;6.37;5.17;;;;;;;;;;5096477;28;20858;-67
2022/07/02 02:11:59;;;;;;;7.50;5.73;;;;;;;;;;5096540;28;20519;-67
2022/07/02 02:14:28;;;;;;;8.63;5.80;;;;;;;;;;5096372;28;20489;-67
2022/07/02 02:16:55;;;;;;;6.97;6.30;;;;;;;;;;5095767;28;20526;-66
2022/07/02 02:19:22;;;;;;;5.83;5.13;;;;;;;;;;5097048;28;20451;-67
2022/07/02 02:21:50;;;;;;;9.00;6.00;;;;;;;;;;5096074;28;20524;-67
2022/07/02 02:24:17;;;;;;;7.47;6.00;;;;;;;;;;5096212;28;20846;-66
2022/07/02 02:26:44;;;;;;;7.80;5.60;;;;;;;;;;5096226;28;21051;-67
2022/07/02 02:29:11;;;;;;;6.30;5.70;;;;;;;;;;5095862;28;20531;-66
2022/07/02 02:31:40;;;;;;;11.67;6.83;;;;;;;;;;5095864;28;20440;-66
2022/07/02 02:34:07;;;;;;;6.10;5.53;;;;;;;;;;5095770;28;20527;-66
2022/07/02 02:36:34;;;;;;;7.00;6.33;;;;;;;;;;5096047;28;20468;-67
2022/07/02 02:39:02;;;;;;;8.50;5.93;;;;;;;;;;5096035;28;20494;-67
2022/07/02 02:41:29;;;;;;;11.60;6.67;;;;;;;;;;5095949;28;20526;-67
2022/07/02 02:43:56;;;;;;;14.30;7.10;;;;;;;;;;5096523;28;20468;-66
2022/07/02 02:46:23;;;;;;;11.20;7.00;;;;;;;;;;5095473;28;20520;-66
2022/07/02 02:48:52;;;;;;;6.60;6.00;;;;;;;;;;5095351;28;20657;-66
2022/07/02 02:51:19;;;;;;;10.37;7.63;;;;;;;;;;5095691;28;20454;-67
2022/07/02 02:53:47;;;;;;;9.13;6.90;;;;;;;;;;5095419;28;20532;-66
2022/07/02 02:56:15;;;;;;;9.80;6.00;;;;;;;;;;5095264;28;20479;-66
2022/07/02 02:58:42;;;;;;;8.27;7.00;;;;;;;;;;5095572;28;20984;-66
2022/07/02 03:01:10;;;;;;;8.73;6.47;;;;;;;;;;5095438;28;20440;-66
2022/07/02 03:03:37;;;;;;;7.23;6.30;;;;;;;;;;5095276;28;20509;-67
2022/07/02 03:06:06;;;;;;;10.60;7.20;;;;;;;;;;5095420;28;20475;-66
2022/07/02 03:08:33;;;;;;;10.10;7.07;;;;;;;;;;5095683;28;20544;-66
2022/07/02 03:11:00;;;;;;;7.33;5.93;;;;;;;;;;5095241;28;20444;-66
2022/07/02 03:13:27;;;;;;;7.73;6.60;;;;;;;;;;5095651;28;20871;-66
2022/07/02 03:15:55;;;;;;;7.23;6.63;;;;;;;;;;5095138;28;20565;-66
2022/07/02 03:18:22;;;;;;;8.90;6.73;;;;;;;;;;5095012;28;20446;-65
2022/07/02 03:20:49;;;;;;;8.10;7.30;;;;;;;;;;5094902;28;20930;-66
2022/07/02 03:23:18;;;;;;;9.00;6.13;;;;;;;;;;5095160;28;20527;-66
2022/07/02 03:25:45;;;;;;;8.63;6.40;;;;;;;;;;5095018;28;20447;-66
2022/07/02 03:28:12;;;;;;;10.20;6.40;;;;;;;;;;5093626;28;21059;-66
2022/07/02 03:30:39;;;;;;;9.67;6.80;;;;;;;;;;5095117;28;20447;-66
2022/07/02 03:33:06;;;;;;;7.20;6.60;;;;;;;;;;5095001;28;20526;-66
2022/07/02 03:35:34;;;;;;;9.53;6.30;;;;;;;;;;5094437;28;20558;-66
2022/07/02 03:38:03;;;;;;;9.60;7.20;;;;;;;;;;5094812;28;20450;-67
2022/07/02 03:40:31;;;;;;;10.07;6.20;;;;;;;;;;5095071;28;20443;-67
2022/07/02 03:42:58;;;;;;;7.30;6.33;;;;;;;;;;5094788;28;20447;-66
2022/07/02 03:45:26;;;;;;;9.03;7.50;;;;;;;;;;5095062;28;20872;-67
2022/07/02 03:47:53;;;;;;;8.40;6.37;;;;;;;;;;5094569;28;20601;-65
2022/07/02 03:50:20;;;;;;;11.27;6.17;;;;;;;;;;5094514;28;20539;-66
2022/07/02 03:52:48;;;;;;;9.13;5.87;;;;;;;;;;5094790;28;20440;-65
2022/07/02 03:55:15;;;;;;;11.53;6.80;;;;;;;;;;5093731;28;20574;-66
2022/07/02 03:57:43;;;;;;;9.60;5.80;;;;;;;;;;5093744;28;20599;-66
2022/07/02 04:00:11;;;;;;;9.13;6.00;;;;;;;;;;5093570;28;20543;-65
2022/07/02 04:02:38;;;;;;;12.83;6.07;;;;;;;;;;5093904;28;20494;-66
2022/07/02 04:05:06;;;;;;;11.13;6.83;;;;;;;;;;5093420;28;20448;-65
2022/07/02 04:07:33;;;;;;;13.57;6.30;;;;;;;;;;5093437;28;20446;-66
2022/07/02 04:10:00;;;;;;;14.47;6.73;;;;;;;;;;5093840;28;20440;-65
2022/07/02 04:12:28;;;;;;;6.73;5.77;;;;;;;;;;5093250;28;20483;-65
2022/07/02 04:14:56;;;;;;;6.97;6.10;;;;;;;;;;5093744;28;20454;-66
2022/07/02 04:17:23;;;;;;;9.43;6.00;;;;;;;;;;5093660;28;20454;-65
2022/07/02 04:19:51;;;;;;;6.97;5.80;;;;;;;;;;5093605;28;20479;-65
2022/07/02 04:22:18;;;;;;;7.00;5.53;;;;;;;;;;5093371;28;20511;-65
2022/07/02 04:24:45;;;;;;;4.80;4.40;;;;;;;;;;5093461;28;20450;-65
2022/07/02 04:27:12;;;;;;;7.33;5.60;;;;;;;;;;5093418;28;20807;-65
2022/07/02 04:29:39;;;;;;;27.43;5.70;;;;;;;;;;5093379;28;20441;-65
2022/07/02 04:32:09;;;;;;;11.10;4.60;;;;;;;;;;5093356;28;20527;-65
2022/07/02 04:34:36;;;;;;;5.73;5.13;;;;;;;;;;5093474;28;20443;-66
2022/07/02 04:37:03;;;;;;;6.10;4.60;;;;;;;;;;5092893;28;20566;-66
2022/07/02 04:39:31;;;;;;;9.17;5.57;;;;;;;;;;5092601;28;20522;-65
2022/07/02 04:41:58;;;;;;;8.87;4.90;;;;;;;;;;5093203;28;20573;-66
2022/07/02 04:44:25;;;;;;;7.77;5.23;;;;;;;;;;5093778;28;20441;-66
2022/07/02 04:46:53;;;;;;;7.07;5.10;;;;;;;;;;5093393;28;20990;-65
2022/07/02 04:49:21;;;;;;;9.37;5.37;;;;;;;;;;5093929;28;20552;-66
2022/07/02 04:51:50;;;;;;;7.67;5.17;;;;;;;;;;5093579;28;20493;-65
2022/07/02 04:54:17;;;;;;;5.87;5.27;;;;;;;;;;5093119;28;20933;-65
2022/07/02 04:56:45;;;;;;;6.30;4.70;;;;;;;;;;5093218;28;20484;-65
2022/07/02 04:59:12;;;;;;;14.10;5.20;;;;;;;;;;5093297;28;20448;-65
2022/07/02 05:01:39;;;;;;;6.10;4.23;;;;;;;;;;5092860;28;21033;-65
2022/07/02 05:04:06;;;;;;;11.53;4.97;;;;;;;;;;5093525;28;20456;-65
2022/07/02 05:06:35;;;;;;;4.60;4.20;;;;;;;;;;5093172;28;20528;-65
2022/07/02 05:09:02;;;;;;;8.30;4.40;;;;;;;;;;5093578;28;20842;-65
2022/07/02 05:11:29;;;;;;;4.83;3.80;;;;;;;;;;5093327;28;20516;-65
2022/07/02 05:13:57;;;;;;;8.63;4.60;;;;;;;;;;5093343;28;20535;-66
2022/07/02 05:16:24;;;;;;;6.33;4.33;;;;;;;;;;5092857;28;20471;-66
2022/07/02 05:18:51;;;;;;;5.03;4.20;;;;;;;;;;5092774;28;20861;-66
2022/07/02 05:21:18;;;;;;;6.00;4.80;;;;;;;;;;5093002;28;20809;-65
2022/07/02 05:23:47;;;;;;;5.63;4.30;;;;;;;;;;5093255;28;20451;-65
2022/07/02 05:26:14;;;;;;;5.27;4.23;;;;;;;;;;5092897;28;20536;-65
2022/07/02 05:28:41;;;;;;;6.73;4.80;;;;;;;;;;5093192;28;20523;-65
2022/07/02 05:31:09;;;;;;;8.83;4.70;;;;;;;;;;5093686;28;20439;-65
2022/07/02 05:33:36;;;;;;;9.77;4.97;;;;;;;;;;5093284;28;20798;-65
2022/07/02 05:36:03;;;;;;;7.57;4.40;;;;;;;;;;5093725;28;20498;-65
2022/07/02 05:38:30;;;;;;;9.03;4.63;;;;;;;;;;5092305;28;21011;-66
2022/07/02 05:40:59;;;;;;;4.00;3.60;;;;;;;;;;5092738;28;20448;-65
2022/07/02 05:43:26;;;;;;;10.97;4.90;;;;;;;;;;5093051;28;20451;-65
2022/07/02 05:45:53;;;;;;;6.20;4.03;;;;;;;;;;5092885;28;20541;-65
2022/07/02 05:48:20;;;;;;;6.33;4.67;;;;;;;;;;5092523;28;20472;-65
2022/07/02 05:50:48;;;;;;;6.37;4.00;;;;;;;;;;5092699;28;20876;-66
2022/07/02 05:53:15;;;;;;;8.50;4.50;;;;;;;;;;5095992;28;20522;-65
2022/07/02 05:55:42;;;;;;;7.67;4.30;;;;;;;;;;5096500;28;20516;-66
2022/07/02 05:58:12;;;;;;;7.20;4.47;;;;;;;;;;5096708;28;20465;-65
2022/07/02 06:00:39;;;;;;;4.60;3.63;;;;;;;;;;5096779;28;20440;-66
2022/07/02 06:03:06;;;;;;;8.30;3.70;;;;;;;;;;5096725;28;20856;-65
2022/07/02 06:08:18;;;;;;;6.87;3.93;;;;;;;;;;5096391;28;20409;-65
2022/07/02 06:10:45;;;;;;;7.10;4.03;;;;;;;;;;5096907;28;20541;-66
2022/07/02 06:13:16;;;;;;;6.53;4.13;;;;;;;;;;5096465;28;20523;-65
2022/07/02 06:15:43;;;;;;;4.63;3.93;;;;;;;;;;5096471;28;20521;-65
2022/07/02 06:18:12;;;;;;;7.17;4.27;;;;;;;;;;5096814;28;20536;-65
2022/07/02 06:20:39;;;;;;;7.80;4.43;;;;;;;;;;5096971;28;20497;-65
2022/07/02 06:23:07;;;;;;;5.40;3.63;;;;;;;;;;5096336;28;20495;-65
2022/07/02 06:25:34;;;;;;;7.67;3.80;;;;;;;;;;5096365;28;20522;-65
2022/07/02 06:28:01;;;;;;;5.47;3.27;;;;;;;;;;5095084;28;20451;-65
2022/07/02 06:30:30;;;;;;;6.83;3.10;;;;;;;;;;5095556;28;20453;-65
2022/07/02 06:32:57;;;;;;;5.77;3.03;;;;;;;;;;5095514;28;20475;-65
2022/07/02 06:35:24;;;;;;;3.63;3.30;;;;;;;;;;5095710;28;20986;-66
2022/07/02 06:37:53;;;;;;;3.70;3.40;;;;;;;;;;5095988;28;20447;-65
2022/07/02 06:40:20;;;;;;;9.50;3.83;;;;;;;;;;5096219;28;20441;-66
2022/07/02 06:42:47;;;;;;;6.27;3.20;;;;;;;;;;5096292;28;20522;-66
2022/07/02 06:45:14;;;;;;;3.97;3.10;;;;;;;;;;5095618;28;20443;-65
2022/07/02 06:47:44;;;;;;;7.33;3.80;;;;;;;;;;5095548;28;20559;-65
2022/07/02 06:50:12;;;;;;;8.17;3.43;;;;;;;;;;5095174;28;20500;-66
2022/07/02 06:52:42;;;;;;;7.63;3.60;;;;;;;;;;5095240;28;20441;-65
2022/07/02 06:55:09;;;;;;;5.13;3.20;;;;;;;;;;5095364;28;20535;-65
2022/07/02 06:57:37;;;;;;;6.90;2.93;;;;;;;;;;5095358;28;21027;-65
2022/07/02 07:00:04;;;;;;;6.50;3.10;;;;;;;;;;5095619;28;20498;-66
2022/07/02 07:02:32;;;;;;;5.33;3.00;;;;;;;;;;5095045;28;20441;-65
2022/07/02 07:05:00;;;;;;;3.77;3.00;;;;;;;;;;5095107;28;20480;-65
2022/07/02 07:07:29;;;;;;;4.67;3.30;;;;;;;;;;5094849;28;20472;-65
2022/07/02 07:09:56;;;;;;;5.70;2.90;;;;;;;;;;5094430;28;20449;-66
2022/07/02 07:12:24;;;;;;;5.60;2.77;;;;;;;;;;5094909;28;20483;-65
2022/07/02 07:14:51;;;;;;;3.73;3.00;;;;;;;;;;5094828;28;20438;-65
2022/07/02 07:17:18;;;;;;;3.87;2.20;;;;;;;;;;5095001;28;20482;-66
2022/07/02 07:19:46;;;;;;;6.87;2.67;;;;;;;;;;5095182;28;20520;-65
2022/07/02 07:22:14;;;;;;;7.43;2.63;;;;;;;;;;5094938;28;20445;-66
2022/07/02 07:24:41;;;;;;;6.30;2.67;;;;;;;;;;5094749;28;20472;-66
2022/07/02 07:27:09;;;;;;;3.97;2.47;;;;;;;;;;5094751;28;20468;-66
2022/07/02 07:29:36;;;;;;;6.83;2.60;;;;;;;;;;5094657;28;20532;-66
2022/07/02 07:32:04;;;;;;;2.60;2.40;;;;;;;;;;5095004;28;20448;-66
2022/07/02 07:34:31;;;;;;;5.53;3.07;;;;;;;;;;5095153;28;20537;-66
2022/07/02 07:36:58;;;;;;;6.20;2.83;;;;;;;;;;5094856;28;20571;-66
2022/07/02 07:39:27;;;;;;;5.77;2.53;;;;;;;;;;5094480;28;20545;-66
2022/07/02 07:41:54;;;;;;;9.43;2.87;;;;;;;;;;5094518;28;20450;-65
2022/07/02 07:44:21;;;;;;;2.97;1.90;;;;;;;;;;5094375;28;20470;-66
2022/07/02 07:46:49;;;;;;;5.53;2.20;;;;;;;;;;5094468;28;20879;-65
2022/07/02 07:49:16;;;;;;;3.73;2.10;;;;;;;;;;5094310;28;20467;-65
2022/07/02 07:51:43;;;;;;;3.50;2.30;;;;;;;;;;5094312;28;20446;-65
2022/07/02 07:54:11;;;;;;;7.20;2.47;;;;;;;;;;5095005;28;20438;-66
2022/07/02 07:56:41;;;;;;;3.13;2.00;;;;;;;;;;5094511;28;20534;-65
2022/07/02 07:59:08;;;;;;;3.73;2.10;;;;;;;;;;5094836;28;20438;-65
2022/07/02 08:01:35;;;;;;;4.30;2.20;;;;;;;;;;5094435;28;20533;-66
2022/07/02 08:04:03;;;;;;;4.90;1.93;;;;;;;;;;5094010;28;20449;-65
2022/07/02 08:06:30;;;;;;;4.57;2.80;;;;;;;;;;5094068;28;20449;-66
2022/07/02 08:08:59;;;;;;;5.67;2.60;;;;;;;;;;5094241;28;20533;-66
2022/07/02 08:11:27;;;;;;;3.37;2.27;;;;;;;;;;5094045;28;20481;-66
2022/07/02 08:13:55;;;;;;;4.60;2.00;;;;;;;;;;5093415;28;21026;-66
2022/07/02 08:16:23;;;;;;;7.13;2.90;;;;;;;;;;5093968;28;20556;-66
2022/07/02 08:18:50;;;;;;;4.33;1.80;;;;;;;;;;5094307;28;20450;-66
2022/07/02 08:21:17;;;;;;;2.47;2.27;;;;;;;;;;5094030;28;20439;-65
2022/07/02 08:23:44;;;;;;;8.07;2.60;;;;;;;;;;5094090;28;20799;-65
2022/07/02 08:26:12;;;;;;;2.03;1.83;;;;;;;;;;5093652;28;20525;-65
2022/07/02 08:28:39;;;;;;;4.40;1.90;;;;;;;;;;5094318;28;20471;-65
2022/07/02 08:31:08;;;;;;;6.30;2.40;;;;;;;;;;5093514;28;20536;-65
2022/07/02 08:33:35;;;;;;;3.80;2.17;;;;;;;;;;5093500;28;20524;-66
2022/07/02 08:36:02;;;;;;;2.07;1.70;;;;;;;;;;5093737;28;20482;-66
2022/07/02 08:38:29;;;;;;;3.37;2.07;;;;;;;;;;5093433;28;20439;-66
2022/07/02 08:40:57;;;;;;;4.00;1.80;;;;;;;;;;5093645;28;20916;-65
2022/07/02 08:43:26;;;;;;;4.43;2.67;;;;;;;;;;5093718;28;20443;-66
2022/07/02 08:45:53;;;;;;;3.87;1.73;;;;;;;;;;5093334;28;20438;-65
2022/07/02 08:48:23;;;;;;;4.50;1.93;;;;;;;;;;5093121;28;20489;-65
2022/07/02 08:50:51;;;;;;;2.90;2.67;;;;;;;;;;5093604;28;20787;-65
2022/07/02 08:53:19;;;;;;;2.30;1.80;;;;;;;;;;5093676;28;20471;-65
2022/07/02 08:55:47;;;;;;;4.17;1.83;;;;;;;;;;5093475;28;20431;-66
2022/07/02 08:58:14;;;;;;;3.47;2.40;;;;;;;;;;5093571;28;20474;-66
2022/07/02 09:00:42;;;;;;;2.97;2.03;;;;;;;;;;5093194;28;20534;-66
2022/07/02 09:03:11;;;;;;;1.80;1.50;;;;;;;;;;5093291;28;20526;-66
2022/07/02 09:05:41;;;;;;;3.73;2.03;;;;;;;;;;5093492;28;20542;-65
2022/07/02 09:08:08;;;;;;;1.67;1.57;;;;;;;;;;5094092;28;20435;-65
2022/07/02 09:10:36;;;;;;;5.93;1.90;;;;;;;;;;5093163;28;20929;-66
2022/07/02 09:13:04;;;;;;;3.67;2.00;;;;;;;;;;5093489;28;20862;-66
2022/07/02 09:15:31;;;;;;;3.30;1.87;;;;;;;;;;5093054;28;20451;-66
2022/07/02 09:17:58;;;;;;;3.33;2.07;;;;;;;;;;5093517;28;20494;-66
2022/07/02 09:20:25;;;;;;;3.97;2.30;;;;;;;;;;5092747;28;20444;-66
2022/07/02 09:22:54;;;;;;;4.27;1.60;;;;;;;;;;5092677;28;20440;-66
2022/07/02 09:25:22;;;;;;;3.47;1.70;;;;;;;;;;5093146;28;20452;-66
2022/07/02 09:27:57;;;;;;;4.13;1.50;;;;;;;;;;5096841;28;21033;-66
2022/07/02 09:30:24;;;;;;;3.13;1.97;;;;;;;;;;5096899;28;20423;-66
2022/07/02 09:33:28;;;;;;;3.80;1.80;;;;;;;;;;5096978;28;20931;-66
2022/07/02 09:35:40;;;;;;;3.00;1.77;;;;;;;;;;5096526;28;20437;-66
2022/07/02 09:38:10;;;;;;;1.80;1.40;;;;;;;;;;5096334;28;20487;-66
2022/07/02 09:40:38;;;;;;;2.27;1.67;;;;;;;;;;5096825;28;20440;-66
2022/07/02 09:43:05;;;;;;;3.40;2.00;;;;;;;;;;5096598;28;20436;-67
2022/07/02 09:45:33;;;;;;;4.10;3.33;;;;;;;;;;5096338;28;20434;-66
2022/07/02 09:48:03;;;;;;;2.80;2.00;;;;;;;;;;5096146;28;20472;-66
2022/07/02 09:50:30;;;;;;;4.50;1.90;;;;;;;;;;5095885;28;20445;-66
2022/07/02 09:52:58;;;;;;;2.40;1.77;;;;;;;;;;5096462;28;20450;-66
2022/07/02 09:55:28;;;;;;;2.30;2.10;;;;;;;;;;5096422;28;20441;-67
2022/07/02 09:57:55;;;;;;;5.07;2.27;;;;;;;;;;5096446;28;20482;-66
2022/07/02 10:00:23;;;;;;;5.90;1.97;;;;;;;;;;5096274;28;20520;-67
2022/07/02 10:02:51;;;;;;;2.47;1.60;;;;;;;;;;5096759;28;20806;-67
2022/07/02 10:05:23;;;;;;;3.93;1.60;;;;;;;;;;5096682;28;20441;-67
2022/07/02 10:07:51;;;;;;;4.50;2.20;;;;;;;;;;5096893;28;20425;-66
2022/07/02 10:10:19;;;;;;;1.97;1.47;;;;;;;;;;5095949;28;20438;-66
2022/07/02 10:12:48;;;;;;;7.20;2.30;;;;;;;;;;5096008;28;20452;-66
2022/07/02 10:15:17;;;;;;;3.20;1.73;;;;;;;;;;5096516;28;20521;-66
2022/07/02 10:17:44;;;;;;;2.80;1.70;;;;;;;;;;5095771;28;20583;-65
2022/07/02 10:20:12;;;;;;;4.40;1.50;;;;;;;;;;5096585;28;20510;-66
2022/07/02 10:22:39;;;;;;;2.50;1.70;;;;;;;;;;5096355;28;20527;-65
2022/07/02 10:25:07;;;;;;;2.57;1.60;;;;;;;;;;5096128;28;20454;-66
2022/07/02 10:27:34;;;;;;;2.00;1.80;;;;;;;;;;5096132;28;20443;-66
2022/07/02 10:30:04;;;;;;;3.27;1.63;;;;;;;;;;5095767;28;20533;-65
2022/07/02 10:32:34;;;;;;;2.77;1.70;;;;;;;;;;5095569;28;20523;-65
2022/07/02 10:35:07;;;;;;;3.50;1.60;;;;;;;;;;5096654;28;20864;-65
2022/07/02 10:37:34;;;;;;;3.60;1.90;;;;;;;;;;5095038;28;20464;-66
2022/07/02 10:40:02;;;;;;;3.27;2.20;;;;;;;;;;5095725;28;20473;-65
2022/07/02 10:42:40;;;;;;;2.63;1.87;;;;;;;;;;5095908;28;20804;-66
2022/07/02 10:45:14;;;;;;;2.80;1.50;;;;;;;;;;5095941;28;20458;-65
2022/07/02 10:47:53;;;;;;;2.70;1.40;;;;;;;;;;5095250;28;20476;-66
2022/07/02 10:50:21;;;;;;;3.97;1.93;;;;;;;;;;5094767;28;20497;-66
2022/07/02 10:52:49;;;;;;;2.93;1.83;;;;;;;;;;5095188;28;20456;-66
2022/07/02 10:55:25;;;;;;;4.10;2.27;;;;;;;;;;5095738;28;20442;-65
2022/07/02 10:57:56;;;;;;;3.13;1.50;;;;;;;;;;5095271;28;20559;-66
2022/07/02 11:00:28;;;;;;;1.67;1.33;;;;;;;;;;5095517;28;20504;-65
2022/07/02 11:02:57;;;;;;;3.57;2.00;;;;;;;;;;5095248;28;20527;-66
2022/07/02 11:05:24;;;;;;;3.20;1.40;;;;;;;;;;5095816;28;20465;-65
2022/07/02 11:07:52;;;;;;;2.13;1.50;;;;;;;;;;5095461;28;20446;-65
2022/07/02 11:10:27;;;;;;;3.40;1.63;;;;;;;;;;5095566;28;20460;-65
2022/07/02 11:12:58;;;;;;;1.40;1.30;;;;;;;;;;5095747;28;20432;-65
2022/07/02 11:15:29;;;;;;;1.60;1.33;;;;;;;;;;5095342;28;20430;-66
2022/07/02 11:18:00;;;;;;;1.40;1.30;;;;;;;;;;5095456;28;20486;-66
2022/07/02 11:20:27;;;;;;;5.03;1.87;;;;;;;;;;5095475;28;20521;-65
2022/07/02 11:22:56;;;;;;;4.70;1.87;;;;;;;;;;5094805;28;20451;-66
2022/07/02 11:25:23;;;;;;;2.23;1.60;;;;;;;;;;5095113;28;20446;-65
2022/07/02 11:27:57;;;;;;;1.83;1.63;;;;;;;;;;5095119;28;20438;-65
2022/07/02 11:30:25;;;;;;;1.57;1.30;;;;;;;;;;5095142;28;20441;-65
2022/07/02 11:32:52;;;;;;;4.17;1.67;;;;;;;;;;5094982;28;20529;-66
2022/07/02 11:35:21;;;;;;;1.73;1.10;;;;;;;;;;5094635;28;20475;-65
2022/07/02 11:37:48;;;;;;;5.90;4.27;;;;;;;;;;5095098;28;20544;-66
2022/07/02 11:40:19;;;;;;;2.17;1.37;;;;;;;;;;5094999;28;20863;-66
2022/07/02 11:42:46;;;;;;;3.30;1.50;;;;;;;;;;5094390;28;20999;-65
2022/07/02 11:45:14;;;;;;;1.90;1.40;;;;;;;;;;5094425;28;20445;-65
2022/07/02 11:47:45;;;;;;;2.60;1.30;;;;;;;;;;5093944;28;20516;-65
2022/07/02 11:50:12;;;;;;;2.00;1.80;;;;;;;;;;5093766;28;20457;-66
2022/07/02 11:52:41;;;;;;;1.57;1.47;;;;;;;;;;5095097;28;20538;-67
2022/07/02 11:55:15;;;;;;;2.50;1.50;;;;;;;;;;5095101;28;20437;-66
2022/07/02 11:57:42;;;;;;;1.30;1.17;;;;;;;;;;5094902;28;20465;-66
2022/07/02 12:00:10;;;;;;;22.67;16.53;;;;;;;;;;5094270;28;20533;-66
2022/07/02 12:02:38;;;;;;;84.63;63.50;;;;;;;;;;5094095;28;20489;-66
2022/07/02 12:05:14;;;;;;;13.60;9.00;;;;;;;;;;5094356;28;20524;-66
2022/07/02 12:07:44;;;;;;;1.57;1.30;;;;;;;;;;5094669;28;20786;-66
2022/07/02 12:10:11;;;;;;;3.47;1.60;;;;;;;;;;5094544;28;20986;-70
2022/07/02 12:12:39;;;;;;;3.33;1.33;;;;;;;;;;5094231;28;20516;-69
2022/07/02 12:15:07;;;;;;;2.00;1.43;;;;;;;;;;5093820;28;20483;-70
2022/07/02 12:17:35;;;;;;;4.40;3.77;;;;;;;;;;5094072;28;21447;-69
2022/07/02 12:20:03;;;;;;;14.70;11.03;;;;;;;;;;5094150;28;20436;-69
2022/07/02 12:22:30;;;;;;;4.57;2.27;;;;;;;;;;5093833;28;20478;-70
2022/07/02 12:24:59;;;;;;;52.07;36.53;;;;;;;;;;5094125;28;20448;-70
2022/07/02 12:27:27;;;;;;;3.50;2.00;;;;;;;;;;5093647;28;20475;-70
2022/07/02 12:29:53;;;;;;;22.30;15.57;;;;;;;;;;5093718;28;20528;-70
2022/07/02 12:32:21;;;;;;;2.50;1.57;;;;;;;;;;5093887;28;20796;-67
2022/07/02 12:34:49;;;;;;;10.80;7.77;;;;;;;;;;5092834;28;20537;-66
2022/07/02 12:37:25;;;;;;;2.13;1.93;;;;;;;;;;5092788;28;20958;-67
2022/07/02 12:39:59;;;;;;;1.57;1.47;;;;;;;;;;5092975;28;20505;-66
2022/07/02 12:42:28;;;;;;;1.30;1.20;;;;;;;;;;5092817;28;20421;-66
2022/07/02 12:44:56;;;;;;;1.70;1.60;;;;;;;;;;5092985;28;20524;-66
2022/07/02 12:47:24;;;;;;;2.73;1.37;;;;;;;;;;5092802;28;20949;-67
2022/07/02 12:49:55;;;;;;;1.40;1.30;;;;;;;;;;5092841;28;20906;-66
2022/07/02 12:52:23;;;;;;;2.00;1.40;;;;;;;;;;5092911;28;20547;-67
2022/07/02 12:54:50;;;;;;;1.43;1.23;;;;;;;;;;5093218;28;20791;-66
2022/07/02 12:57:18;;;;;;;2.83;1.23;;;;;;;;;;5092669;28;20473;-67
2022/07/02 12:59:47;;;;;;;1.73;1.63;;;;;;;;;;5093044;28;20564;-67
2022/07/02 13:02:15;;;;;;;1.40;1.30;;;;;;;;;;5093101;28;20534;-67
2022/07/02 13:04:43;;;;;;;1.43;1.13;;;;;;;;;;5093138;28;20525;-67
2022/07/02 13:07:11;;;;;;;2.13;1.30;;;;;;;;;;5093242;28;20449;-67
2022/07/02 13:09:38;;;;;;;2.33;1.23;;;;;;;;;;5093582;28;20849;-67
2022/07/02 13:12:06;;;;;;;2.43;1.10;;;;;;;;;;5093499;28;20452;-67
2022/07/02 13:14:33;;;;;;;1.20;1.10;;;;;;;;;;5092970;28;20532;-67
2022/07/02 13:17:01;;;;;;;5.80;4.27;;;;;;;;;;5092556;28;20934;-67
2022/07/02 13:19:29;;;;;;;2.10;1.33;;;;;;;;;;5092812;28;20483;-67
2022/07/02 13:21:56;;;;;;;1.30;1.20;;;;;;;;;;5093129;28;20532;-67
2022/07/02 13:24:23;;;;;;;4.20;2.83;;;;;;;;;;5093038;28;20499;-66
2022/07/02 13:26:51;;;;;;;1.20;1.10;;;;;;;;;;5093118;28;20445;-66
2022/07/02 13:29:18;;;;;;;2.23;1.70;;;;;;;;;;5093048;28;20474;-66
2022/07/02 13:31:45;;;;;;;1.10;1.10;;;;;;;;;;5093153;28;20445;-66
2022/07/02 13:34:14;;;;;;;1.57;1.47;;;;;;;;;;5092748;28;20440;-66
2022/07/02 13:36:41;;;;;;;2.53;1.50;;;;;;;;;;5092714;28;20773;-67
2022/07/02 13:39:08;;;;;;;6.17;5.57;;;;;;;;;;5092165;28;20651;-66
2022/07/02 13:41:35;;;;;;;1.20;1.10;;;;;;;;;;5092950;28;20494;-66
2022/07/02 13:44:02;;;;;;;2.17;1.20;;;;;;;;;;5092499;28;20513;-67
2022/07/02 13:46:30;;;;;;;1.50;1.40;;;;;;;;;;5092767;28;20411;-67
2022/07/02 13:48:57;;;;;;;2.30;1.77;;;;;;;;;;5092705;28;20484;-67
2022/07/02 13:51:26;;;;;;;4.30;1.27;;;;;;;;;;5092916;28;20422;-67
2022/07/02 13:53:53;;;;;;;3.70;1.30;;;;;;;;;;5092564;28;20419;-65
2022/07/02 13:56:21;;;;;;;1.40;1.30;;;;;;;;;;5092226;28;20525;-67
2022/07/02 13:58:48;;;;;;;1.67;1.27;;;;;;;;;;5092100;28;20505;-67
2022/07/02 14:01:15;;;;;;;37.37;29.33;;;;;;;;;;5092817;28;20521;-67
2022/07/02 14:03:43;;;;;;;5.07;4.33;;;;;;;;;;5092591;28;20508;-68
2022/07/02 14:06:10;;;;;;;3.30;2.70;;;;;;;;;;5092997;28;20537;-67
2022/07/02 14:08:39;;;;;;;7.30;5.60;;;;;;;;;;5092596;28;20536;-68
2022/07/02 14:11:08;;;;;;;7.47;6.37;;;;;;;;;;5092790;28;20415;-67
2022/07/02 14:13:35;;;;;;;6.43;5.70;;;;;;;;;;5095712;28;20483;-67
2022/07/02 14:16:02;;;;;;;2.00;1.50;;;;;;;;;;5095871;28;20509;-68
2022/07/02 14:18:29;;;;;;;1.73;1.50;;;;;;;;;;5095830;28;20537;-67
2022/07/02 14:20:57;;;;;;;5.90;3.27;;;;;;;;;;5095677;28;20977;-68
2022/07/02 14:23:24;;;;;;;2.13;1.20;;;;;;;;;;5095987;28;20919;-66
2022/07/02 14:25:52;;;;;;;5.33;4.90;;;;;;;;;;5095877;28;20535;-66
2022/07/02 14:28:20;;;;;;;2.13;1.60;;;;;;;;;;5095927;28;20907;-67
2022/07/02 14:30:47;;;;;;;5.13;1.53;;;;;;;;;;5096025;28;20420;-66
2022/07/02 14:33:15;;;;;;;3.50;1.93;;;;;;;;;;5095567;28;20417;-66
2022/07/02 14:35:42;;;;;;;1.93;1.73;;;;;;;;;;5095614;28;20444;-66
2022/07/02 14:38:09;;;;;;;1.50;1.40;;;;;;;;;;5095131;28;20533;-66
2022/07/02 14:40:37;;;;;;;1.30;1.17;;;;;;;;;;5095268;28;20449;-66
2022/07/02 14:43:05;;;;;;;1.80;1.20;;;;;;;;;;5096123;28;20525;-66
2022/07/02 14:45:32;;;;;;;2.77;1.27;;;;;;;;;;5095749;28;20529;-66
2022/07/02 14:48:00;;;;;;;1.67;1.50;;;;;;;;;;5095500;28;20905;-66